createdAt,value
2022-12-07T00:01:39.949Z,100865.75
2022-12-07T00:04:07.985Z,100846.06
2022-12-07T00:06:36.801Z,100874.41
2022-12-07T00:09:05.735Z,100872.16
2022-12-07T00:11:32.332Z,100875.66
2022-12-07T00:14:01.537Z,100877.56
2022-12-07T00:16:31.086Z,100868.72
2022-12-07T00:18:57.819Z,100843.09
2022-12-07T00:21:26.950Z,100822.88
2022-12-07T00:23:55.302Z,100869.81
2022-12-07T00:26:27.507Z,100869.44
2022-12-07T00:28:56.039Z,100868.09
2022-12-07T00:31:25.503Z,100870.91
2022-12-07T00:33:52.575Z,100857.97
2022-12-07T00:36:26.337Z,100864.19
2022-12-07T00:38:54.585Z,100859.13
2022-12-07T00:41:23.581Z,100860.81
2022-12-07T00:43:51.018Z,100868.97
2022-12-07T00:46:18.907Z,100855.09
2022-12-07T00:48:45.947Z,100856.13
2022-12-07T00:51:14.055Z,100853.19
2022-12-07T00:53:42.113Z,100816.25
2022-12-07T00:56:17.976Z,100832.75
2022-12-07T00:58:44.947Z,100827.13
2022-12-07T01:01:12.147Z,100804.69
2022-12-07T01:03:39.259Z,100813.97
2022-12-07T01:06:06.149Z,100839.59
2022-12-07T01:08:33.290Z,100816.53
2022-12-07T01:11:06.314Z,100783.69
2022-12-07T01:13:33.894Z,100841.03
2022-12-07T01:16:03.080Z,100803.63
2022-12-07T01:18:30.934Z,100839.38
2022-12-07T01:21:15.115Z,100832.69
2022-12-07T01:23:42.019Z,100833.06
2022-12-07T01:26:12.514Z,100827.34
2022-12-07T01:28:39.611Z,100832.66
2022-12-07T01:31:08.983Z,100802.59
2022-12-07T01:33:37.531Z,100840.25
2022-12-07T01:36:06.190Z,100838.94
2022-12-07T01:38:33.774Z,100845.16
2022-12-07T01:41:01.444Z,100807.25
2022-12-07T01:43:30.280Z,100843.75
2022-12-07T01:45:57.475Z,100844.75
2022-12-07T01:48:34.489Z,100838.34
2022-12-07T01:51:04.906Z,100846.72
2022-12-07T01:53:32.887Z,100841.81
2022-12-07T01:55:59.960Z,100820.22
2022-12-07T01:58:26.501Z,100834.34
2022-12-07T02:00:53.074Z,100849.81
2022-12-07T02:06:19.440Z,100842.22
2022-12-07T02:08:46.929Z,100797.44
2022-12-07T02:11:13.652Z,100835.22
2022-12-07T02:13:41.555Z,100833.44
2022-12-07T02:16:17.202Z,100835.13
2022-12-07T02:19:21.384Z,100825.19
2022-12-07T02:21:53.084Z,100821.50
2022-12-07T02:24:37.504Z,100837.31
2022-12-07T02:27:39.160Z,100829.81
2022-12-07T02:30:05.971Z,100831.25
2022-12-07T02:32:51.355Z,100828.59
2022-12-07T02:35:34.531Z,100835.47
2022-12-07T02:38:15.902Z,100835.53
2022-12-07T02:40:45.212Z,100836.25
2022-12-07T02:43:18.349Z,100828.25
2022-12-07T02:45:46.145Z,100830.63
2022-12-07T02:48:15.125Z,100838.13
2022-12-07T02:50:46.224Z,100803.56
2022-12-07T02:53:34.989Z,100838.53
2022-12-07T02:56:07.455Z,100834.44
2022-12-07T02:59:03.289Z,100815.56
2022-12-07T03:01:43.704Z,100795.16
2022-12-07T03:04:42.441Z,100834.88
2022-12-07T03:07:17.906Z,100819.38
2022-12-07T03:09:59.585Z,100829.31
2022-12-07T03:12:33.710Z,100785.06
2022-12-07T03:15:07.501Z,100840.41
2022-12-07T03:17:36.184Z,100813.03
2022-12-07T03:20:06.376Z,100837.63
2022-12-07T03:22:35.547Z,100789.41
2022-12-07T03:25:06.155Z,100827.16
2022-12-07T03:27:34.424Z,100830.56
2022-12-07T03:30:06.288Z,100839.44
2022-12-07T03:32:41.361Z,100832.34
2022-12-07T03:35:20.818Z,100834.75
2022-12-07T03:37:52.596Z,100826.50
2022-12-07T03:40:23.714Z,100832.69
2022-12-07T03:42:51.128Z,100810.13
2022-12-07T03:45:18.805Z,100829.31
2022-12-07T03:48:03.938Z,100826.13
2022-12-07T03:50:38.286Z,100824.34
2022-12-07T03:53:19.313Z,100830.81
2022-12-07T03:55:47.015Z,100828.59
2022-12-07T03:58:16.792Z,100824.78
2022-12-07T04:00:43.674Z,100830.03
2022-12-07T04:03:11.528Z,100784.13
2022-12-07T04:05:38.638Z,100800.66
2022-12-07T04:08:05.555Z,100814.66
2022-12-07T04:10:32.264Z,100813.81
2022-12-07T04:12:58.813Z,100794.75
2022-12-07T04:15:25.424Z,100783.94
2022-12-07T04:17:51.946Z,100823.16
2022-12-07T04:20:18.580Z,100792.41
2022-12-07T04:22:45.112Z,100808.34
2022-12-07T04:25:11.617Z,100781.31
2022-12-07T04:27:38.201Z,100800.91
2022-12-07T04:30:05.521Z,100796.97
2022-12-07T04:32:32.390Z,100777.16
2022-12-07T04:34:58.921Z,100812.88
2022-12-07T04:37:25.426Z,100818.06
2022-12-07T04:39:51.937Z,100827.38
2022-12-07T04:42:18.396Z,100818.34
2022-12-07T04:44:45.643Z,100825.63
2022-12-07T04:47:12.361Z,100762.22
2022-12-07T04:49:39.223Z,100808.19
2022-12-07T04:52:05.831Z,100818.31
2022-12-07T04:54:32.387Z,100809.06
2022-12-07T04:56:58.872Z,100821.66
2022-12-07T04:59:25.447Z,100824.50
2022-12-07T05:01:52.156Z,100781.03
2022-12-07T05:04:19.031Z,100822.00
2022-12-07T05:06:45.633Z,100820.97
2022-12-07T05:09:12.313Z,100816.22
2022-12-07T05:11:38.896Z,100812.97
2022-12-07T05:14:08.658Z,100793.47
2022-12-07T05:16:35.248Z,100789.38
2022-12-07T05:19:01.926Z,100784.00
2022-12-07T05:21:28.519Z,100775.63
2022-12-07T05:23:55.101Z,100785.03
2022-12-07T05:26:21.989Z,100804.91
2022-12-07T05:28:55.806Z,100789.78
2022-12-07T05:31:23.343Z,100813.81
2022-12-07T05:33:50.014Z,100818.09
2022-12-07T05:36:16.663Z,100814.00
2022-12-07T05:38:43.207Z,100771.47
2022-12-07T05:41:33.766Z,100814.03
2022-12-07T05:44:00.279Z,100807.22
2022-12-07T05:46:27.010Z,100817.91
2022-12-07T05:48:53.632Z,100811.09
2022-12-07T05:51:20.269Z,100790.88
2022-12-07T05:53:46.876Z,100807.19
2022-12-07T05:56:13.393Z,100805.50
2022-12-07T05:58:58.776Z,100810.19
2022-12-07T06:01:25.414Z,100799.50
2022-12-07T06:03:51.960Z,100804.28
2022-12-07T06:06:18.686Z,100787.13
2022-12-07T06:08:45.287Z,100794.06
2022-12-07T06:11:30.601Z,100786.22
2022-12-07T06:13:57.125Z,100802.09
2022-12-07T06:16:23.643Z,100758.97
2022-12-07T06:18:50.176Z,100804.88
2022-12-07T06:21:16.697Z,100805.75
2022-12-07T06:23:43.238Z,100814.84
2022-12-07T06:26:09.737Z,100811.72
2022-12-07T06:28:36.163Z,100811.25
2022-12-07T06:31:03.782Z,100765.19
2022-12-07T06:33:30.548Z,100824.56
2022-12-07T06:35:57.045Z,100821.72
2022-12-07T06:38:23.635Z,100796.94
2022-12-07T06:40:50.197Z,100814.81
2022-12-07T06:43:16.773Z,100823.34
2022-12-07T06:45:43.506Z,100821.81
2022-12-07T06:48:10.057Z,100807.69
2022-12-07T06:50:36.776Z,100818.66
2022-12-07T06:53:03.383Z,100822.44
2022-12-07T06:55:29.894Z,100804.84
2022-12-07T06:57:56.467Z,100827.03
2022-12-07T07:00:23.358Z,100831.66
2022-12-07T07:02:50.017Z,100811.16
2022-12-07T07:05:17.495Z,100811.13
2022-12-07T07:08:05.214Z,100809.44
2022-12-07T07:10:30.680Z,100796.97
2022-12-07T07:12:57.901Z,100824.25
2022-12-07T07:15:24.977Z,100825.44
2022-12-07T07:17:51.526Z,100813.81
2022-12-07T07:20:18.152Z,100827.56
2022-12-07T07:22:44.711Z,100793.28
2022-12-07T07:25:11.277Z,100826.13
2022-12-07T07:27:37.843Z,100830.38
2022-12-07T07:30:05.593Z,100820.44
2022-12-07T07:32:32.296Z,100828.69
2022-12-07T07:34:58.820Z,100793.41
2022-12-07T07:37:25.828Z,100824.75
2022-12-07T07:39:52.361Z,100806.34
2022-12-07T07:42:18.877Z,100837.69
2022-12-07T07:44:45.455Z,100829.09
2022-12-07T07:47:11.940Z,100797.69
2022-12-07T07:49:40.824Z,100842.94
2022-12-07T07:52:11.259Z,100823.44
2022-12-07T07:54:37.756Z,100819.25
2022-12-07T07:57:04.505Z,100846.88
2022-12-07T07:59:31.223Z,100847.53
2022-12-07T08:01:57.735Z,100847.97
2022-12-07T08:04:24.616Z,100831.81
2022-12-07T08:06:51.199Z,100818.16
2022-12-07T08:09:17.725Z,100849.78
2022-12-07T08:11:44.316Z,100845.84
2022-12-07T08:14:11.932Z,100809.56
2022-12-07T08:16:38.935Z,100813.81
2022-12-07T08:19:06.091Z,100838.09
2022-12-07T08:21:32.859Z,100845.47
2022-12-07T08:23:59.998Z,100829.78
2022-12-07T08:26:26.531Z,100819.09
2022-12-07T08:28:53.952Z,100856.56
2022-12-07T08:31:20.705Z,100857.22
2022-12-07T08:33:48.537Z,100860.97
2022-12-07T08:36:15.963Z,100849.41
2022-12-07T08:39:01.365Z,100823.31
2022-12-07T08:41:30.105Z,100831.13
2022-12-07T08:43:56.633Z,100848.50
2022-12-07T08:46:27.613Z,100850.66
2022-12-07T08:48:58.047Z,100849.97
2022-12-07T08:51:24.738Z,100838.56
2022-12-07T08:53:52.240Z,100830.72
2022-12-07T08:56:19.175Z,100822.81
2022-12-07T08:58:45.887Z,100845.72
2022-12-07T09:01:12.422Z,100807.88
2022-12-07T09:03:39.082Z,100836.72
2022-12-07T09:06:06.158Z,100839.94
2022-12-07T09:08:36.788Z,100835.13
2022-12-07T09:11:03.641Z,100818.03
2022-12-07T09:13:32.854Z,100825.97
2022-12-07T09:15:59.660Z,100835.22
2022-12-07T09:18:26.584Z,100814.16
2022-12-07T09:20:53.144Z,100836.00
2022-12-07T09:23:19.716Z,100803.47
2022-12-07T09:25:46.356Z,100825.78
2022-12-07T09:28:12.871Z,100820.75
2022-12-07T09:30:59.819Z,100837.09
2022-12-07T09:33:26.629Z,100838.00
2022-12-07T09:35:53.554Z,100806.16
2022-12-07T09:38:20.504Z,100828.88
2022-12-07T09:40:48.226Z,100822.94
2022-12-07T09:43:18.318Z,100834.63
2022-12-07T09:45:48.505Z,100835.09
2022-12-07T09:48:21.264Z,100833.75
2022-12-07T09:50:48.998Z,100842.28
2022-12-07T09:53:36.029Z,100850.84
2022-12-07T09:56:02.936Z,100820.28
2022-12-07T09:58:31.219Z,100845.00
2022-12-07T10:01:06.156Z,100837.88
2022-12-07T10:03:32.916Z,100819.56
2022-12-07T10:05:59.533Z,100820.78
2022-12-07T10:08:26.568Z,100820.19
2022-12-07T10:10:56.622Z,100823.84
2022-12-07T10:13:35.778Z,100825.06
2022-12-07T10:16:06.934Z,100789.16
2022-12-07T10:18:42.309Z,100809.16
2022-12-07T10:21:08.786Z,100816.38
2022-12-07T10:23:40.610Z,100810.03
2022-12-07T10:26:30.635Z,100794.72
2022-12-07T10:29:00.689Z,100804.75
2022-12-07T10:31:27.518Z,100810.06
2022-12-07T10:33:59.612Z,100794.56
2022-12-07T10:36:27.365Z,100809.41
2022-12-07T10:39:01.818Z,100808.72
2022-12-07T10:41:28.930Z,100783.78
2022-12-07T10:43:57.528Z,100798.56
2022-12-07T10:46:58.120Z,100806.56
2022-12-07T10:49:39.845Z,100770.22
2022-12-07T10:52:24.876Z,100794.47
2022-12-07T10:55:23.398Z,100800.16
2022-12-07T10:57:57.272Z,100790.31
2022-12-07T11:00:25.628Z,100782.00
2022-12-07T11:03:22.188Z,100781.00
2022-12-07T11:06:19.987Z,100762.34
2022-12-07T11:08:59.411Z,100783.91
2022-12-07T11:11:37.259Z,100774.97
2022-12-07T11:14:36.508Z,100784.09
2022-12-07T11:17:10.018Z,100764.50
2022-12-07T11:19:52.209Z,100781.19
2022-12-07T11:22:41.579Z,100726.75
2022-12-07T11:25:32.476Z,100780.63
2022-12-07T11:28:08.164Z,100766.97
2022-12-07T11:30:41.372Z,100734.88
2022-12-07T11:33:14.880Z,100780.47
2022-12-07T11:35:53.962Z,100777.06
2022-12-07T11:38:45.594Z,100742.00
2022-12-07T11:41:15.386Z,100768.38
2022-12-07T11:43:55.386Z,100763.63
2022-12-07T11:46:25.536Z,100735.19
2022-12-07T11:49:00.303Z,100758.84
2022-12-07T11:51:33.216Z,100758.91
2022-12-07T11:54:04.642Z,100758.28
2022-12-07T11:56:31.681Z,100751.94
2022-12-07T11:59:05.172Z,100718.91
2022-12-07T12:01:31.905Z,100750.66
2022-12-07T12:04:14.817Z,100748.13
2022-12-07T12:06:46.280Z,100749.06
2022-12-07T12:14:58.929Z,100742.50
2022-12-07T12:17:46.846Z,100746.00
2022-12-07T12:20:34.128Z,100744.81
2022-12-07T12:23:17.501Z,100751.38
2022-12-07T12:25:47.336Z,100734.22
2022-12-07T12:28:27.698Z,100744.00
2022-12-07T12:31:18.644Z,100738.38
2022-12-07T12:33:56.257Z,100731.72
2022-12-07T12:36:28.034Z,100708.81
2022-12-07T12:39:11.562Z,100734.88
2022-12-07T12:42:00.689Z,100726.22
2022-12-07T12:44:30.291Z,100714.72
2022-12-07T12:47:00.484Z,100701.00
2022-12-07T12:49:27.084Z,100715.94
2022-12-07T12:52:09.876Z,100691.16
2022-12-07T12:54:37.548Z,100697.16
2022-12-07T12:57:27.955Z,100712.56
2022-12-07T12:59:54.437Z,100706.22
2022-12-07T13:02:34.036Z,100711.91
2022-12-07T13:05:07.127Z,100701.53
2022-12-07T13:07:49.655Z,100702.63
2022-12-07T13:10:29.643Z,100700.59
2022-12-07T13:13:18.166Z,100696.81
2022-12-07T13:15:44.851Z,100694.78
2022-12-07T13:18:29.475Z,100696.25
2022-12-07T13:21:03.126Z,100697.97
2022-12-07T13:23:45.095Z,100694.03
2022-12-07T13:26:22.998Z,100698.25
2022-12-07T13:28:50.715Z,100700.94
2022-12-07T13:31:42.942Z,100685.56
2022-12-07T13:34:41.479Z,100684.78
2022-12-07T13:37:33.674Z,100679.53
2022-12-07T13:40:21.334Z,100674.59
2022-12-07T13:42:47.832Z,100673.91
2022-12-07T13:45:51.065Z,100653.34
2022-12-07T13:48:53.322Z,100665.72
2022-12-07T13:51:24.500Z,100663.41
2022-12-07T13:53:57.070Z,100646.88
2022-12-07T13:56:28.144Z,100655.16
2022-12-07T13:58:55.555Z,100651.66
2022-12-07T14:01:22.206Z,100638.16
2022-12-07T14:03:48.881Z,100658.13
2022-12-07T14:06:31.067Z,100666.78
2022-12-07T14:09:19.079Z,100655.75
2022-12-07T14:11:47.432Z,100621.06
2022-12-07T14:14:25.922Z,100654.66
2022-12-07T14:16:57.941Z,100654.03
2022-12-07T14:19:48.960Z,100649.75
2022-12-07T14:22:36.489Z,100654.91
2022-12-07T14:25:15.121Z,100648.53
2022-12-07T14:27:59.242Z,100636.44
2022-12-07T14:30:29.027Z,100641.94
2022-12-07T14:32:59.323Z,100618.28
2022-12-07T14:35:26.159Z,100631.06
2022-12-07T14:37:52.812Z,100633.19
2022-12-07T14:40:30.875Z,100618.72
2022-12-07T14:43:06.488Z,100644.78
2022-12-07T14:45:33.048Z,100641.19
2022-12-07T14:53:42.749Z,100607.81
2022-12-07T14:56:09.696Z,100630.28
2022-12-07T14:58:36.332Z,100623.72
2022-12-07T15:01:03.055Z,100622.03
2022-12-07T15:03:30.659Z,100620.66
2022-12-07T15:05:57.226Z,100609.91
2022-12-07T15:08:23.904Z,100620.31
2022-12-07T15:10:50.529Z,100626.25
2022-12-07T15:13:35.723Z,100597.84
2022-12-07T15:16:02.381Z,100590.84
2022-12-07T15:18:28.974Z,100621.09
2022-12-07T15:20:55.510Z,100618.13
2022-12-07T15:23:22.544Z,100621.06
2022-12-07T15:25:49.949Z,100624.94
2022-12-07T15:28:16.989Z,100605.84
2022-12-07T15:30:44.562Z,100625.84
2022-12-07T15:33:12.433Z,100585.25
2022-12-07T15:35:45.588Z,100624.03
2022-12-07T15:38:12.325Z,100613.00
2022-12-07T15:40:38.952Z,100569.50
2022-12-07T15:43:05.963Z,100623.06
2022-12-07T15:45:32.463Z,100583.53
2022-12-07T15:50:46.277Z,100623.91
2022-12-07T15:53:12.921Z,100605.31
2022-12-07T15:55:40.992Z,100614.91
2022-12-07T15:58:07.822Z,100600.28
2022-12-07T16:00:34.440Z,100593.56
2022-12-07T16:03:01.191Z,100605.94
2022-12-07T16:05:28.036Z,100605.34
2022-12-07T16:07:54.690Z,100602.25
2022-12-07T16:10:21.278Z,100576.66
2022-12-07T16:12:47.759Z,100602.53
2022-12-07T16:15:14.734Z,100560.81
2022-12-07T16:17:41.225Z,100606.78
2022-12-07T16:20:09.201Z,100573.75
2022-12-07T16:22:35.802Z,100584.31
2022-12-07T16:25:02.899Z,100607.56
2022-12-07T16:27:29.684Z,100564.09
2022-12-07T16:29:56.745Z,100598.00
2022-12-07T16:32:23.440Z,100574.91
2022-12-07T16:34:49.965Z,100596.59
2022-12-07T16:37:16.444Z,100565.56
2022-12-07T16:39:43.332Z,100588.75
2022-12-07T16:42:10.684Z,100567.78
2022-12-07T16:44:37.194Z,100583.22
2022-12-07T16:47:03.746Z,100595.63
2022-12-07T16:49:30.957Z,100553.94
2022-12-07T16:52:18.763Z,100590.09
2022-12-07T16:54:44.791Z,100554.00
2022-12-07T16:57:14.281Z,100583.06
2022-12-07T16:59:46.018Z,100570.75
2022-12-07T17:02:13.199Z,100561.44
2022-12-07T17:04:43.618Z,100565.25
2022-12-07T17:07:10.693Z,100565.88
2022-12-07T17:09:38.092Z,100524.75
2022-12-07T17:12:06.187Z,100558.09
2022-12-07T17:14:51.389Z,100540.31
2022-12-07T17:17:17.873Z,100553.44
2022-12-07T17:19:45.111Z,100551.63
2022-12-07T17:22:13.561Z,100545.06
2022-12-07T17:24:40.221Z,100554.63
2022-12-07T17:27:06.762Z,100546.22
2022-12-07T17:29:33.303Z,100514.97
2022-12-07T17:31:59.917Z,100547.13
2022-12-07T17:34:26.995Z,100551.38
2022-12-07T17:36:55.598Z,100547.50
2022-12-07T17:39:22.302Z,100530.09
2022-12-07T17:42:07.564Z,100525.25
2022-12-07T17:44:34.121Z,100541.97
2022-12-07T17:47:02.773Z,100531.44
2022-12-07T17:49:30.086Z,100536.88
2022-12-07T17:52:15.056Z,100536.72
2022-12-07T17:54:41.819Z,100519.22
2022-12-07T17:57:09.569Z,100523.59
2022-12-07T17:59:36.427Z,100526.16
2022-12-07T18:02:03.537Z,100524.50
2022-12-07T18:04:30.175Z,100495.31
2022-12-07T18:06:56.732Z,100496.56
2022-12-07T18:09:23.569Z,100535.22
2022-12-07T18:11:50.283Z,100513.81
2022-12-07T18:14:17.136Z,100523.97
2022-12-07T18:16:44.073Z,100523.88
2022-12-07T18:19:13.509Z,100505.84
2022-12-07T18:21:40.589Z,100495.22
2022-12-07T18:24:09.034Z,100488.06
2022-12-07T18:26:37.570Z,100497.91
2022-12-07T18:29:05.937Z,100496.00
2022-12-07T18:31:33.854Z,100475.78
2022-12-07T18:34:02.833Z,100514.09
2022-12-07T18:36:29.358Z,100519.69
2022-12-07T18:38:55.892Z,100490.13
2022-12-07T18:41:22.429Z,100502.00
2022-12-07T18:43:49.019Z,100471.44
2022-12-07T18:46:20.546Z,100513.09
2022-12-07T18:48:47.918Z,100505.25
2022-12-07T18:51:15.428Z,100499.00
2022-12-07T18:53:42.727Z,100508.47
2022-12-07T18:56:16.693Z,100501.66
2022-12-07T18:59:03.838Z,100500.66
2022-12-07T19:01:31.708Z,100499.38
2022-12-07T19:03:59.056Z,100491.19
2022-12-07T19:06:25.870Z,100492.47
2022-12-07T19:08:53.681Z,100495.53
2022-12-07T19:11:42.728Z,100492.47
2022-12-07T19:14:09.655Z,100500.84
2022-12-07T19:16:36.205Z,100496.53
2022-12-07T19:19:03.445Z,100487.59
2022-12-07T19:21:30.033Z,100493.78
2022-12-07T19:23:56.507Z,100461.94
2022-12-07T19:26:23.452Z,100491.94
2022-12-07T19:28:50.692Z,100479.03
2022-12-07T19:31:17.764Z,100483.94
2022-12-07T19:33:44.433Z,100488.16
2022-12-07T19:36:11.102Z,100485.13
2022-12-07T19:38:38.012Z,100481.03
2022-12-07T19:41:29.236Z,100482.06
2022-12-07T19:43:55.953Z,100478.59
2022-12-07T19:46:22.715Z,100472.38
2022-12-07T19:48:49.263Z,100468.88
2022-12-07T19:51:16.049Z,100459.13
2022-12-07T19:53:42.920Z,100453.09
2022-12-07T19:56:15.359Z,100462.88
2022-12-07T19:58:42.597Z,100470.59
2022-12-07T20:01:12.713Z,100432.81
2022-12-07T20:03:40.349Z,100459.16
2022-12-07T20:06:13.217Z,100400.56
2022-12-07T20:08:40.669Z,100415.03
2022-12-07T20:11:26.214Z,100423.66
2022-12-07T20:13:54.654Z,100438.16
2022-12-07T20:16:21.674Z,100439.56
2022-12-07T20:18:51.640Z,100384.69
2022-12-07T20:21:22.923Z,100397.84
2022-12-07T20:23:49.822Z,100439.94
2022-12-07T20:26:16.856Z,100424.53
2022-12-07T20:28:46.833Z,100418.13
2022-12-07T20:31:17.520Z,100405.50
2022-12-07T20:33:47.658Z,100441.16
2022-12-07T20:36:16.813Z,100430.81
2022-12-07T20:38:44.566Z,100435.50
2022-12-07T20:41:33.241Z,100408.34
2022-12-07T20:44:01.028Z,100397.63
2022-12-07T20:46:28.489Z,100401.38
2022-12-07T20:48:55.446Z,100419.06
2022-12-07T20:51:22.418Z,100420.00
2022-12-07T20:53:49.107Z,100377.75
2022-12-07T20:56:23.363Z,100412.44
2022-12-07T20:58:50.182Z,100399.22
2022-12-07T21:01:17.331Z,100405.53
2022-12-07T21:03:44.197Z,100390.47
2022-12-07T21:06:14.298Z,100404.50
2022-12-07T21:08:45.738Z,100400.03
2022-12-07T21:11:12.570Z,100397.53
2022-12-07T21:13:39.418Z,100373.75
2022-12-07T21:16:11.107Z,100385.78
2022-12-07T21:18:38.376Z,100365.97
2022-12-07T21:21:06.573Z,100395.06
2022-12-07T21:23:33.864Z,100387.13
2022-12-07T21:26:00.914Z,100385.38
2022-12-07T21:28:27.752Z,100373.38
2022-12-07T21:31:12.923Z,100349.91
2022-12-07T21:33:40.435Z,100389.41
2022-12-07T21:36:08.258Z,100386.06
2022-12-07T21:38:34.860Z,100386.34
2022-12-07T21:41:10.668Z,100366.47
2022-12-07T21:43:37.282Z,100383.16
2022-12-07T21:46:03.887Z,100355.88
2022-12-07T21:48:30.416Z,100391.00
2022-12-07T21:51:04.028Z,100364.03
2022-12-07T21:53:31.366Z,100385.78
2022-12-07T21:55:58.103Z,100349.50
2022-12-07T21:58:24.790Z,100380.31
2022-12-07T22:00:51.594Z,100372.53
2022-12-07T22:03:18.150Z,100370.56
2022-12-07T22:05:44.785Z,100331.47
2022-12-07T22:08:11.364Z,100322.06
2022-12-07T22:10:38.404Z,100368.53
2022-12-07T22:13:04.927Z,100368.34
2022-12-07T22:15:31.395Z,100364.91
2022-12-07T22:17:57.910Z,100377.88
2022-12-07T22:20:25.240Z,100373.97
2022-12-07T22:22:51.796Z,100365.88
2022-12-07T22:25:18.557Z,100367.94
2022-12-07T22:27:45.150Z,100322.06
2022-12-07T22:30:12.469Z,100334.03
2022-12-07T22:32:48.253Z,100359.88
2022-12-07T22:35:15.972Z,100360.41
2022-12-07T22:37:42.579Z,100331.47
2022-12-07T22:40:09.600Z,100352.34
2022-12-07T22:42:36.190Z,100326.75
2022-12-07T22:45:03.126Z,100352.41
2022-12-07T22:47:29.910Z,100312.44
2022-12-07T22:49:56.804Z,100347.56
2022-12-07T22:52:23.309Z,100344.78
2022-12-07T22:54:49.800Z,100322.50
2022-12-07T22:57:16.341Z,100345.59
2022-12-07T22:59:42.806Z,100296.88
2022-12-07T23:02:09.283Z,100318.59
2022-12-07T23:04:36.015Z,100312.53
2022-12-07T23:07:02.610Z,100322.94
2022-12-07T23:09:29.274Z,100297.22
2022-12-07T23:12:14.133Z,100316.50
2022-12-07T23:14:40.713Z,100306.66
2022-12-07T23:17:07.258Z,100275.00
2022-12-07T23:19:33.758Z,100302.75
2022-12-07T23:22:00.324Z,100306.06
2022-12-07T23:24:27.186Z,100304.25
2022-12-07T23:26:53.855Z,100261.75
2022-12-07T23:29:20.429Z,100300.53
2022-12-07T23:31:47.799Z,100299.69
2022-12-07T23:34:14.349Z,100267.09
2022-12-07T23:36:40.870Z,100296.88
2022-12-07T23:39:07.961Z,100301.41
2022-12-07T23:41:34.551Z,100258.16
2022-12-07T23:44:01.371Z,100279.50
2022-12-07T23:46:30.850Z,100290.13
2022-12-07T23:48:59.009Z,100295.47
2022-12-07T23:51:26.111Z,100293.44
2022-12-07T23:53:53.870Z,100254.75
2022-12-07T23:56:23.505Z,100287.81
2022-12-07T23:58:50.636Z,100281.34
